createdAt,value
2023-01-07T00:02:14.793Z,2.50
2023-01-07T00:07:06.582Z,2.22
2023-01-07T00:11:58.224Z,5.53
2023-01-07T00:16:50.060Z,1.27
2023-01-07T00:21:42.607Z,5.32
2023-01-07T00:26:36.363Z,3.67
2023-01-07T00:31:34.553Z,1.90
2023-01-07T00:36:32.028Z,3.88
2023-01-07T00:41:24.242Z,2.72
2023-01-07T00:46:16.156Z,2.65
2023-01-07T00:51:10.992Z,2.80
2023-01-07T00:56:02.673Z,2.80
2023-01-07T01:00:56.542Z,3.05
2023-01-07T01:05:48.334Z,2.20
2023-01-07T01:10:39.966Z,4.95
2023-01-07T01:15:31.923Z,1.55
2023-01-07T01:20:23.671Z,2.13
2023-01-07T01:25:15.500Z,2.22
2023-01-07T01:30:08.159Z,3.80
2023-01-07T01:34:59.853Z,3.28
2023-01-07T01:39:51.514Z,2.90
2023-01-07T01:44:48.941Z,1.95
2023-01-07T01:49:47.902Z,2.05
2023-01-07T01:54:43.401Z,4.25
2023-01-07T01:59:39.573Z,3.95
2023-01-07T02:04:31.822Z,4.10
2023-01-07T02:09:23.879Z,5.78
2023-01-07T02:14:49.396Z,2.58
2023-01-07T02:20:12.964Z,2.00
2023-01-07T02:25:26.194Z,5.05
2023-01-07T02:31:03.380Z,3.38
2023-01-07T02:36:10.179Z,5.10
2023-01-07T02:41:18.130Z,4.28
2023-01-07T02:46:26.957Z,1.85
2023-01-07T02:51:19.073Z,2.13
2023-01-07T02:56:41.836Z,4.25
2023-01-07T03:01:34.226Z,3.20
2023-01-07T03:06:54.732Z,3.83
2023-01-07T03:11:55.301Z,4.05
2023-01-07T03:16:57.543Z,2.28
2023-01-07T03:21:50.318Z,1.40
2023-01-07T03:26:49.017Z,4.35
2023-01-07T03:31:51.538Z,3.45
2023-01-07T03:36:49.232Z,2.75
2023-01-07T03:41:59.775Z,5.10
2023-01-07T03:46:53.239Z,1.50
2023-01-07T03:51:46.094Z,2.35
2023-01-07T03:56:37.783Z,3.17
2023-01-07T04:01:30.730Z,0.65
2023-01-07T04:06:22.583Z,2.15
2023-01-07T04:11:14.235Z,2.13
2023-01-07T04:16:06.159Z,3.05
2023-01-07T04:20:57.817Z,2.22
2023-01-07T04:25:49.987Z,1.30
2023-01-07T04:30:42.180Z,5.07
2023-01-07T04:35:34.304Z,1.52
2023-01-07T04:40:26.635Z,2.25
2023-01-07T04:45:18.482Z,2.75
2023-01-07T04:50:10.263Z,3.75
2023-01-07T04:55:01.892Z,2.70
2023-01-07T04:59:53.595Z,3.33
2023-01-07T05:04:45.484Z,2.78
2023-01-07T05:09:37.300Z,2.03
2023-01-07T05:14:28.959Z,2.13
2023-01-07T05:19:21.876Z,3.53
2023-01-07T05:24:13.836Z,1.98
2023-01-07T05:29:05.612Z,2.28
2023-01-07T05:33:57.279Z,1.73
2023-01-07T05:38:48.921Z,3.00
2023-01-07T05:43:40.604Z,2.63
2023-01-07T05:48:32.367Z,2.13
2023-01-07T05:53:24.185Z,2.70
2023-01-07T05:58:15.938Z,1.80
2023-01-07T06:03:07.712Z,2.20
2023-01-07T06:07:59.401Z,2.70
2023-01-07T06:12:51.500Z,2.17
2023-01-07T06:17:43.163Z,4.57
2023-01-07T06:22:35.318Z,0.80
2023-01-07T06:27:26.947Z,1.75
2023-01-07T06:32:18.671Z,1.42
2023-01-07T06:37:10.446Z,2.03
2023-01-07T06:42:02.235Z,2.88
2023-01-07T06:46:53.828Z,2.65
2023-01-07T06:51:45.486Z,3.08
2023-01-07T06:56:37.184Z,6.00
2023-01-07T07:01:29.050Z,3.40
2023-01-07T07:06:20.833Z,2.67
2023-01-07T07:11:12.533Z,2.00
2023-01-07T07:16:04.513Z,6.78
2023-01-07T07:20:56.868Z,2.22
2023-01-07T07:25:48.453Z,3.50
2023-01-07T07:30:46.762Z,3.50
2023-01-07T07:35:39.864Z,3.60
2023-01-07T07:40:31.547Z,2.50
2023-01-07T07:45:23.268Z,6.22
2023-01-07T07:50:15.018Z,4.15
2023-01-07T07:55:20.149Z,4.65
2023-01-07T08:00:17.883Z,1.48
2023-01-07T08:05:11.606Z,3.80
2023-01-07T08:10:03.831Z,3.58
2023-01-07T08:14:55.499Z,3.88
2023-01-07T08:19:47.238Z,2.28
2023-01-07T08:24:38.893Z,3.78
2023-01-07T08:29:30.953Z,2.90
2023-01-07T08:34:24.934Z,1.27
2023-01-07T08:39:16.804Z,1.83
2023-01-07T08:44:08.469Z,1.33
2023-01-07T08:49:00.718Z,3.55
2023-01-07T08:53:52.335Z,4.22
2023-01-07T08:58:43.972Z,1.58
2023-01-07T09:03:35.673Z,1.73
2023-01-07T09:08:27.347Z,2.42
2023-01-07T09:13:19.157Z,2.28
2023-01-07T09:18:10.845Z,5.55
2023-01-07T09:23:02.507Z,2.17
2023-01-07T09:27:54.220Z,2.90
2023-01-07T09:32:45.945Z,4.57
2023-01-07T09:37:37.755Z,11.88
2023-01-07T09:42:55.111Z,4.13
2023-01-07T09:47:53.752Z,5.30
2023-01-07T09:52:50.940Z,3.83
2023-01-07T09:57:42.860Z,3.40
2023-01-07T10:02:50.134Z,1.73
2023-01-07T10:08:31.413Z,1.45
2023-01-07T10:13:42.322Z,1.67
2023-01-07T10:18:36.648Z,2.60
2023-01-07T10:23:37.837Z,4.63
2023-01-07T10:29:11.029Z,6.00
2023-01-07T10:34:03.300Z,2.97
2023-01-07T10:39:23.004Z,2.67
2023-01-07T10:44:23.899Z,2.00
2023-01-07T10:49:23.068Z,2.72
2023-01-07T10:54:52.444Z,2.13
2023-01-07T10:59:50.725Z,1.00
2023-01-07T11:04:42.455Z,1.02
2023-01-07T11:09:40.033Z,0.73
2023-01-07T11:14:36.475Z,1.42
2023-01-07T11:19:49.370Z,3.85
2023-01-07T11:24:41.018Z,1.73
2023-01-07T11:29:38.994Z,1.75
2023-01-07T11:34:35.306Z,1.95
2023-01-07T11:39:29.784Z,1.27
2023-01-07T11:44:22.175Z,0.40
2023-01-07T11:49:30.394Z,0.82
2023-01-07T11:54:25.521Z,1.85
2023-01-07T11:59:19.992Z,2.22
2023-01-07T12:04:19.126Z,1.55
2023-01-07T12:09:32.535Z,1.27
2023-01-07T12:14:24.177Z,1.98
2023-01-07T12:19:44.247Z,5.07
2023-01-07T12:24:38.636Z,2.80
2023-01-07T12:29:54.658Z,3.33
2023-01-07T12:34:58.018Z,2.25
2023-01-07T12:40:23.444Z,3.08
2023-01-07T12:45:21.877Z,1.98
2023-01-07T12:50:16.311Z,1.23
2023-01-07T12:55:17.337Z,2.53
2023-01-07T13:00:26.661Z,2.67
2023-01-07T13:05:25.928Z,1.65
2023-01-07T13:10:34.707Z,4.90
2023-01-07T13:15:35.872Z,2.83
2023-01-07T13:20:36.729Z,3.55
2023-01-07T13:25:43.159Z,1.50
2023-01-07T13:31:26.223Z,1.00
2023-01-07T13:36:45.359Z,2.17
2023-01-07T13:41:55.500Z,3.58
2023-01-07T13:46:47.924Z,2.13
2023-01-07T13:51:39.818Z,4.47
2023-01-07T13:56:38.474Z,2.80
2023-01-07T14:01:32.968Z,4.25
2023-01-07T14:06:27.435Z,3.30
2023-01-07T14:11:39.033Z,3.40
2023-01-07T14:16:40.704Z,2.88
2023-01-07T14:21:55.601Z,2.85
2023-01-07T14:27:24.879Z,2.55
2023-01-07T14:32:33.031Z,5.18
2023-01-07T14:37:32.682Z,2.47
2023-01-07T14:42:27.693Z,4.57
2023-01-07T14:47:41.068Z,5.47
2023-01-07T14:53:14.727Z,2.45
2023-01-07T14:58:16.407Z,4.72
2023-01-07T15:03:13.953Z,3.35
2023-01-07T15:08:28.061Z,5.72
2023-01-07T15:13:40.173Z,4.43
2023-01-07T15:18:42.789Z,8.15
2023-01-07T15:23:53.838Z,6.40
2023-01-07T15:28:57.575Z,4.20
2023-01-07T15:33:55.944Z,2.47
2023-01-07T15:38:56.026Z,6.68
2023-01-07T15:43:47.838Z,4.03
2023-01-07T15:48:39.512Z,5.88
2023-01-07T15:53:32.161Z,5.50
2023-01-07T15:58:35.234Z,4.35
2023-01-07T16:03:27.922Z,3.70
2023-01-07T16:08:32.727Z,4.00
2023-01-07T16:13:24.389Z,4.93
2023-01-07T16:18:19.192Z,5.55
2023-01-07T16:23:10.810Z,3.97
2023-01-07T16:28:04.391Z,5.72
2023-01-07T16:32:56.826Z,1.60
2023-01-07T16:37:49.289Z,2.67
2023-01-07T16:42:48.294Z,2.42
2023-01-07T16:47:39.925Z,2.58
2023-01-07T16:52:34.465Z,2.35
2023-01-07T16:57:34.187Z,4.30
2023-01-07T17:02:25.809Z,1.58
2023-01-07T17:07:27.066Z,3.50
2023-01-07T17:12:40.211Z,3.50
2023-01-07T17:17:33.942Z,3.72
2023-01-07T17:22:31.499Z,4.32
2023-01-07T17:27:27.500Z,10.48
2023-01-07T17:32:19.716Z,2.05
2023-01-07T17:37:16.031Z,2.60
2023-01-07T17:42:48.037Z,4.00
2023-01-07T17:47:40.237Z,6.75
2023-01-07T17:52:32.000Z,3.95
2023-01-07T17:57:23.725Z,4.40
2023-01-07T18:02:20.541Z,2.92
2023-01-07T18:07:16.639Z,3.03
2023-01-07T18:12:35.073Z,3.30
2023-01-07T18:17:27.747Z,4.57
2023-01-07T18:22:21.121Z,2.63
2023-01-07T18:27:17.485Z,5.30
2023-01-07T18:32:09.886Z,2.22
2023-01-07T18:37:02.505Z,3.55
2023-01-07T18:41:54.442Z,3.67
2023-01-07T18:46:46.455Z,2.00
2023-01-07T18:51:38.448Z,7.07
2023-01-07T18:56:30.510Z,5.85
2023-01-07T19:01:23.017Z,5.47
2023-01-07T19:06:15.836Z,4.82
2023-01-07T19:11:09.235Z,7.38
2023-01-07T19:16:01.688Z,6.22
2023-01-07T19:20:53.411Z,5.53
2023-01-07T19:25:51.974Z,4.20
2023-01-07T19:30:43.813Z,6.65
2023-01-07T19:35:35.511Z,5.88
2023-01-07T19:40:27.311Z,9.35
2023-01-07T19:45:19.090Z,11.07
2023-01-07T19:50:11.379Z,9.90
2023-01-07T19:55:03.173Z,7.50
2023-01-07T19:59:54.859Z,6.75
2023-01-07T20:04:46.587Z,3.05
2023-01-07T20:09:38.347Z,5.05
2023-01-07T20:14:30.634Z,4.50
2023-01-07T20:19:23.459Z,4.03
2023-01-07T20:24:15.613Z,6.47
2023-01-07T20:29:07.829Z,4.50
2023-01-07T20:34:00.843Z,3.85
2023-01-07T20:38:52.730Z,5.05
2023-01-07T20:43:44.479Z,12.98
2023-01-07T20:48:37.004Z,4.97
2023-01-07T20:53:29.769Z,6.13
2023-01-07T20:58:21.614Z,6.72
2023-01-07T21:03:13.264Z,5.85
2023-01-07T21:08:05.058Z,8.18
2023-01-07T21:12:56.723Z,12.95
2023-01-07T21:17:49.174Z,5.63
2023-01-07T21:22:41.840Z,5.47
2023-01-07T21:27:33.602Z,4.90
2023-01-07T21:32:25.327Z,6.85
2023-01-07T21:37:17.172Z,6.72
2023-01-07T21:42:09.435Z,9.75
2023-01-07T21:47:01.292Z,10.00
2023-01-07T21:51:53.293Z,8.98
2023-01-07T21:56:45.199Z,6.22
2023-01-07T22:01:37.316Z,7.10
2023-01-07T22:06:32.237Z,8.27
2023-01-07T22:11:25.823Z,11.43
2023-01-07T22:16:18.304Z,5.03
2023-01-07T22:21:10.418Z,11.05
2023-01-07T22:26:04.984Z,8.10
2023-01-07T22:31:00.028Z,9.55
2023-01-07T22:35:53.427Z,15.15
2023-01-07T22:40:45.510Z,9.95
2023-01-07T22:45:55.691Z,7.72
2023-01-07T22:50:47.817Z,10.25
2023-01-07T22:55:40.941Z,10.43
2023-01-07T23:00:48.260Z,8.73
2023-01-07T23:05:40.132Z,8.23
2023-01-07T23:10:32.249Z,14.60
2023-01-07T23:15:24.429Z,9.32
2023-01-07T23:20:16.418Z,12.75
2023-01-07T23:25:08.630Z,14.73
2023-01-07T23:30:00.379Z,11.60
2023-01-07T23:34:52.186Z,11.60
2023-01-07T23:39:44.027Z,11.98
2023-01-07T23:44:35.911Z,8.05
2023-01-07T23:49:27.586Z,14.20
2023-01-07T23:54:19.394Z,16.55
2023-01-07T23:59:11.410Z,13.70
